sensor_id;sensor_type;location;lat;lon;timestamp;P1;durP1;ratioP1;P2;durP2;ratioP2
59263;SDS011;45030;42.720;23.344;2023-05-21T00:00:59;23.77;;;12.75;;
59263;SDS011;45030;42.720;23.344;2023-05-21T00:03:25;25.20;;;13.50;;
59263;SDS011;45030;42.720;23.344;2023-05-21T00:05:52;23.13;;;11.27;;
59263;SDS011;45030;42.720;23.344;2023-05-21T00:08:17;22.40;;;12.40;;
59263;SDS011;45030;42.720;23.344;2023-05-21T00:10:42;18.45;;;9.88;;
59263;SDS011;45030;42.720;23.344;2023-05-21T00:13:07;17.17;;;8.82;;
59263;SDS011;45030;42.720;23.344;2023-05-21T00:15:34;16.98;;;8.65;;
59263;SDS011;45030;42.720;23.344;2023-05-21T00:17:59;13.13;;;7.57;;
59263;SDS011;45030;42.720;23.344;2023-05-21T00:20:25;16.02;;;8.38;;
59263;SDS011;45030;42.720;23.344;2023-05-21T00:22:50;14.35;;;7.38;;
59263;SDS011;45030;42.720;23.344;2023-05-21T00:25:16;13.32;;;7.43;;
59263;SDS011;45030;42.720;23.344;2023-05-21T00:27:42;13.98;;;8.05;;
59263;SDS011;45030;42.720;23.344;2023-05-21T00:30:07;11.90;;;6.93;;
59263;SDS011;45030;42.720;23.344;2023-05-21T00:32:32;14.63;;;7.85;;
59263;SDS011;45030;42.720;23.344;2023-05-21T00:34:57;13.68;;;7.78;;
59263;SDS011;45030;42.720;23.344;2023-05-21T00:37:23;12.15;;;6.38;;
59263;SDS011;45030;42.720;23.344;2023-05-21T00:39:48;14.73;;;7.68;;
59263;SDS011;45030;42.720;23.344;2023-05-21T00:42:14;12.35;;;6.53;;
59263;SDS011;45030;42.720;23.344;2023-05-21T00:44:42;11.55;;;6.25;;
59263;SDS011;45030;42.720;23.344;2023-05-21T00:47:07;13.68;;;7.30;;
59263;SDS011;45030;42.720;23.344;2023-05-21T00:49:32;12.07;;;6.85;;
59263;SDS011;45030;42.720;23.344;2023-05-21T00:51:58;11.65;;;6.43;;
59263;SDS011;45030;42.720;23.344;2023-05-21T00:54:25;12.35;;;6.93;;
59263;SDS011;45030;42.720;23.344;2023-05-21T00:56:50;12.80;;;6.68;;
59263;SDS011;45030;42.720;23.344;2023-05-21T00:59:16;13.13;;;7.22;;
59263;SDS011;45030;42.720;23.344;2023-05-21T01:01:42;14.85;;;8.02;;
59263;SDS011;45030;42.720;23.344;2023-05-21T01:04:07;14.52;;;8.52;;
59263;SDS011;45030;42.720;23.344;2023-05-21T01:06:32;12.88;;;7.75;;
59263;SDS011;45030;42.720;23.344;2023-05-21T01:08:58;14.23;;;8.25;;
59263;SDS011;45030;42.720;23.344;2023-05-21T01:11:30;14.23;;;8.15;;
59263;SDS011;45030;42.720;23.344;2023-05-21T01:13:58;11.80;;;7.10;;
59263;SDS011;45030;42.720;23.344;2023-05-21T01:16:24;12.75;;;8.15;;
59263;SDS011;45030;42.720;23.344;2023-05-21T01:18:49;12.98;;;7.90;;
59263;SDS011;45030;42.720;23.344;2023-05-21T01:21:15;14.63;;;8.77;;
59263;SDS011;45030;42.720;23.344;2023-05-21T01:23:42;11.45;;;7.47;;
59263;SDS011;45030;42.720;23.344;2023-05-21T01:26:07;10.43;;;5.72;;
59263;SDS011;45030;42.720;23.344;2023-05-21T01:28:33;8.70;;;5.32;;
59263;SDS011;45030;42.720;23.344;2023-05-21T01:30:58;12.48;;;6.93;;
59263;SDS011;45030;42.720;23.344;2023-05-21T01:33:26;13.48;;;6.50;;
59263;SDS011;45030;42.720;23.344;2023-05-21T01:35:56;11.65;;;6.00;;
59263;SDS011;45030;42.720;23.344;2023-05-21T01:38:30;10.50;;;6.10;;
59263;SDS011;45030;42.720;23.344;2023-05-21T01:40:59;10.93;;;6.75;;
59263;SDS011;45030;42.720;23.344;2023-05-21T01:43:30;11.60;;;7.30;;
59263;SDS011;45030;42.720;23.344;2023-05-21T01:45:57;12.50;;;7.35;;
59263;SDS011;45030;42.720;23.344;2023-05-21T01:48:24;11.70;;;6.72;;
59263;SDS011;45030;42.720;23.344;2023-05-21T01:50:51;10.85;;;6.25;;
59263;SDS011;45030;42.720;23.344;2023-05-21T01:53:19;12.73;;;6.70;;
59263;SDS011;45030;42.720;23.344;2023-05-21T01:55:44;8.75;;;4.93;;
59263;SDS011;45030;42.720;23.344;2023-05-21T01:58:11;9.02;;;4.75;;
59263;SDS011;45030;42.720;23.344;2023-05-21T02:00:36;8.55;;;5.03;;
59263;SDS011;45030;42.720;23.344;2023-05-21T02:03:04;8.45;;;5.10;;
59263;SDS011;45030;42.720;23.344;2023-05-21T02:05:29;8.90;;;4.88;;
59263;SDS011;45030;42.720;23.344;2023-05-21T02:07:54;11.35;;;5.15;;
59263;SDS011;45030;42.720;23.344;2023-05-21T02:10:19;9.02;;;5.30;;
59263;SDS011;45030;42.720;23.344;2023-05-21T02:12:45;9.73;;;5.65;;
59263;SDS011;45030;42.720;23.344;2023-05-21T02:15:10;8.85;;;5.68;;
59263;SDS011;45030;42.720;23.344;2023-05-21T02:17:35;8.43;;;4.45;;
59263;SDS011;45030;42.720;23.344;2023-05-21T02:20:02;8.88;;;4.72;;
59263;SDS011;45030;42.720;23.344;2023-05-21T02:22:40;11.40;;;5.78;;
59263;SDS011;45030;42.720;23.344;2023-05-21T02:25:07;12.15;;;5.20;;
59263;SDS011;45030;42.720;23.344;2023-05-21T02:27:33;12.13;;;6.45;;
59263;SDS011;45030;42.720;23.344;2023-05-21T02:29:59;11.63;;;7.05;;
59263;SDS011;45030;42.720;23.344;2023-05-21T02:32:24;12.35;;;6.95;;
59263;SDS011;45030;42.720;23.344;2023-05-21T02:34:50;12.60;;;8.02;;
59263;SDS011;45030;42.720;23.344;2023-05-21T02:37:15;15.40;;;9.57;;
59263;SDS011;45030;42.720;23.344;2023-05-21T02:39:41;13.00;;;6.68;;
59263;SDS011;45030;42.720;23.344;2023-05-21T02:42:06;16.05;;;6.53;;
59263;SDS011;45030;42.720;23.344;2023-05-21T02:44:31;15.43;;;6.63;;
59263;SDS011;45030;42.720;23.344;2023-05-21T02:46:57;10.63;;;6.07;;
59263;SDS011;45030;42.720;23.344;2023-05-21T02:49:22;12.18;;;7.03;;
59263;SDS011;45030;42.720;23.344;2023-05-21T02:51:47;15.70;;;6.55;;
59263;SDS011;45030;42.720;23.344;2023-05-21T02:54:13;11.48;;;6.20;;
59263;SDS011;45030;42.720;23.344;2023-05-21T02:56:38;11.30;;;6.88;;
59263;SDS011;45030;42.720;23.344;2023-05-21T02:59:03;13.02;;;6.97;;
59263;SDS011;45030;42.720;23.344;2023-05-21T03:01:29;13.15;;;6.72;;
59263;SDS011;45030;42.720;23.344;2023-05-21T03:03:54;14.90;;;6.85;;
59263;SDS011;45030;42.720;23.344;2023-05-21T03:06:19;12.00;;;7.72;;
59263;SDS011;45030;42.720;23.344;2023-05-21T03:08:44;10.32;;;6.25;;
59263;SDS011;45030;42.720;23.344;2023-05-21T03:11:10;11.80;;;7.90;;
59263;SDS011;45030;42.720;23.344;2023-05-21T03:13:35;13.50;;;7.68;;
59263;SDS011;45030;42.720;23.344;2023-05-21T03:16:00;18.13;;;9.73;;
59263;SDS011;45030;42.720;23.344;2023-05-21T03:18:25;16.85;;;9.68;;
59263;SDS011;45030;42.720;23.344;2023-05-21T03:20:51;23.15;;;11.07;;
59263;SDS011;45030;42.720;23.344;2023-05-21T03:23:16;20.30;;;10.48;;
59263;SDS011;45030;42.720;23.344;2023-05-21T03:25:41;22.55;;;11.45;;
59263;SDS011;45030;42.720;23.344;2023-05-21T03:28:07;19.33;;;11.02;;
59263;SDS011;45030;42.720;23.344;2023-05-21T03:30:34;18.80;;;10.95;;
59263;SDS011;45030;42.720;23.344;2023-05-21T03:33:00;17.58;;;10.38;;
59263;SDS011;45030;42.720;23.344;2023-05-21T03:35:27;20.13;;;11.85;;
59263;SDS011;45030;42.720;23.344;2023-05-21T03:37:52;14.23;;;6.47;;
59263;SDS011;45030;42.720;23.344;2023-05-21T03:40:17;12.32;;;6.85;;
59263;SDS011;45030;42.720;23.344;2023-05-21T03:42:43;16.67;;;8.20;;
59263;SDS011;45030;42.720;23.344;2023-05-21T03:45:08;12.68;;;6.35;;
59263;SDS011;45030;42.720;23.344;2023-05-21T03:47:33;15.20;;;7.25;;
59263;SDS011;45030;42.720;23.344;2023-05-21T03:50:00;15.70;;;7.18;;
59263;SDS011;45030;42.720;23.344;2023-05-21T03:52:25;16.80;;;7.72;;
59263;SDS011;45030;42.720;23.344;2023-05-21T03:54:50;11.35;;;6.63;;
59263;SDS011;45030;42.720;23.344;2023-05-21T03:57:15;15.02;;;8.15;;
59263;SDS011;45030;42.720;23.344;2023-05-21T03:59:41;13.68;;;7.05;;
59263;SDS011;45030;42.720;23.344;2023-05-21T04:02:06;17.75;;;7.88;;
59263;SDS011;45030;42.720;23.344;2023-05-21T04:04:31;18.05;;;8.30;;
59263;SDS011;45030;42.720;23.344;2023-05-21T04:06:57;19.20;;;7.05;;
59263;SDS011;45030;42.720;23.344;2023-05-21T04:09:23;17.55;;;7.47;;
59263;SDS011;45030;42.720;23.344;2023-05-21T04:11:48;14.35;;;7.28;;
59263;SDS011;45030;42.720;23.344;2023-05-21T04:14:14;15.00;;;8.80;;
59263;SDS011;45030;42.720;23.344;2023-05-21T04:16:39;18.30;;;9.15;;
59263;SDS011;45030;42.720;23.344;2023-05-21T04:19:07;20.52;;;9.77;;
59263;SDS011;45030;42.720;23.344;2023-05-21T04:21:33;22.08;;;10.23;;
59263;SDS011;45030;42.720;23.344;2023-05-21T04:23:58;22.15;;;8.02;;
59263;SDS011;45030;42.720;23.344;2023-05-21T04:26:24;14.18;;;6.85;;
59263;SDS011;45030;42.720;23.344;2023-05-21T04:28:49;16.83;;;7.82;;
59263;SDS011;45030;42.720;23.344;2023-05-21T04:31:15;12.02;;;5.75;;
59263;SDS011;45030;42.720;23.344;2023-05-21T04:33:40;9.73;;;4.93;;
59263;SDS011;45030;42.720;23.344;2023-05-21T04:36:06;10.45;;;5.45;;
59263;SDS011;45030;42.720;23.344;2023-05-21T04:38:33;10.32;;;5.45;;
59263;SDS011;45030;42.720;23.344;2023-05-21T04:41:01;11.77;;;5.78;;
59263;SDS011;45030;42.720;23.344;2023-05-21T04:43:28;9.73;;;5.35;;
59263;SDS011;45030;42.720;23.344;2023-05-21T04:45:54;13.35;;;5.32;;
59263;SDS011;45030;42.720;23.344;2023-05-21T04:48:19;6.75;;;4.68;;
59263;SDS011;45030;42.720;23.344;2023-05-21T04:50:46;6.90;;;5.03;;
59263;SDS011;45030;42.720;23.344;2023-05-21T04:53:11;9.02;;;5.07;;
59263;SDS011;45030;42.720;23.344;2023-05-21T04:55:36;10.45;;;5.85;;
59263;SDS011;45030;42.720;23.344;2023-05-21T04:58:06;11.32;;;6.07;;
59263;SDS011;45030;42.720;23.344;2023-05-21T05:00:32;7.47;;;4.93;;
59263;SDS011;45030;42.720;23.344;2023-05-21T05:02:57;11.18;;;6.28;;
59263;SDS011;45030;42.720;23.344;2023-05-21T05:05:22;9.95;;;5.95;;
59263;SDS011;45030;42.720;23.344;2023-05-21T05:07:48;8.27;;;5.45;;
59263;SDS011;45030;42.720;23.344;2023-05-21T05:10:13;10.18;;;5.85;;
59263;SDS011;45030;42.720;23.344;2023-05-21T05:12:38;9.27;;;5.43;;
59263;SDS011;45030;42.720;23.344;2023-05-21T05:15:03;9.32;;;4.68;;
59263;SDS011;45030;42.720;23.344;2023-05-21T05:17:29;9.32;;;4.35;;
59263;SDS011;45030;42.720;23.344;2023-05-21T05:19:54;6.85;;;4.30;;
59263;SDS011;45030;42.720;23.344;2023-05-21T05:22:19;7.75;;;4.10;;
59263;SDS011;45030;42.720;23.344;2023-05-21T05:24:44;8.55;;;4.10;;
59263;SDS011;45030;42.720;23.344;2023-05-21T05:27:10;7.10;;;3.90;;
59263;SDS011;45030;42.720;23.344;2023-05-21T05:29:35;13.07;;;4.40;;
59263;SDS011;45030;42.720;23.344;2023-05-21T05:32:00;6.85;;;3.70;;
59263;SDS011;45030;42.720;23.344;2023-05-21T05:34:26;7.23;;;3.67;;
59263;SDS011;45030;42.720;23.344;2023-05-21T05:36:51;5.72;;;3.58;;
59263;SDS011;45030;42.720;23.344;2023-05-21T05:39:16;5.68;;;4.10;;
59263;SDS011;45030;42.720;23.344;2023-05-21T05:41:41;7.38;;;3.53;;
59263;SDS011;45030;42.720;23.344;2023-05-21T05:44:06;6.70;;;3.47;;
59263;SDS011;45030;42.720;23.344;2023-05-21T05:46:32;6.70;;;3.57;;
59263;SDS011;45030;42.720;23.344;2023-05-21T05:48:57;8.70;;;3.88;;
59263;SDS011;45030;42.720;23.344;2023-05-21T05:51:22;3.90;;;3.30;;
59263;SDS011;45030;42.720;23.344;2023-05-21T05:53:47;6.53;;;3.47;;
59263;SDS011;45030;42.720;23.344;2023-05-21T05:56:13;8.70;;;3.72;;
59263;SDS011;45030;42.720;23.344;2023-05-21T05:58:38;6.47;;;3.47;;
59263;SDS011;45030;42.720;23.344;2023-05-21T06:01:03;6.43;;;4.53;;
59263;SDS011;45030;42.720;23.344;2023-05-21T06:03:28;9.00;;;3.70;;
59263;SDS011;45030;42.720;23.344;2023-05-21T06:05:54;7.57;;;4.28;;
59263;SDS011;45030;42.720;23.344;2023-05-21T06:08:19;4.57;;;3.00;;
59263;SDS011;45030;42.720;23.344;2023-05-21T06:10:44;6.45;;;3.92;;
59263;SDS011;45030;42.720;23.344;2023-05-21T06:13:10;5.83;;;3.50;;
59263;SDS011;45030;42.720;23.344;2023-05-21T06:15:35;6.72;;;3.58;;
59263;SDS011;45030;42.720;23.344;2023-05-21T06:18:00;4.50;;;3.00;;
59263;SDS011;45030;42.720;23.344;2023-05-21T06:20:25;5.25;;;3.45;;
59263;SDS011;45030;42.720;23.344;2023-05-21T06:22:51;4.28;;;2.90;;
59263;SDS011;45030;42.720;23.344;2023-05-21T06:25:16;6.13;;;3.35;;
59263;SDS011;45030;42.720;23.344;2023-05-21T06:27:42;5.82;;;3.30;;
59263;SDS011;45030;42.720;23.344;2023-05-21T06:30:07;5.65;;;2.90;;
59263;SDS011;45030;42.720;23.344;2023-05-21T06:32:32;5.60;;;3.70;;
59263;SDS011;45030;42.720;23.344;2023-05-21T06:34:58;8.85;;;4.13;;
59263;SDS011;45030;42.720;23.344;2023-05-21T06:37:23;8.65;;;4.70;;
59263;SDS011;45030;42.720;23.344;2023-05-21T06:39:48;10.90;;;4.30;;
59263;SDS011;45030;42.720;23.344;2023-05-21T06:42:14;5.22;;;3.28;;
59263;SDS011;45030;42.720;23.344;2023-05-21T06:44:39;6.43;;;3.63;;
59263;SDS011;45030;42.720;23.344;2023-05-21T06:47:04;7.97;;;4.15;;
59263;SDS011;45030;42.720;23.344;2023-05-21T06:49:30;9.63;;;5.85;;
59263;SDS011;45030;42.720;23.344;2023-05-21T06:51:56;6.68;;;3.88;;
59263;SDS011;45030;42.720;23.344;2023-05-21T06:54:21;7.00;;;3.22;;
59263;SDS011;45030;42.720;23.344;2023-05-21T06:56:46;5.25;;;3.70;;
59263;SDS011;45030;42.720;23.344;2023-05-21T06:59:11;5.82;;;2.67;;
59263;SDS011;45030;42.720;23.344;2023-05-21T07:01:37;5.73;;;3.77;;
59263;SDS011;45030;42.720;23.344;2023-05-21T07:04:02;6.72;;;4.38;;
59263;SDS011;45030;42.720;23.344;2023-05-21T07:06:27;11.15;;;4.10;;
59263;SDS011;45030;42.720;23.344;2023-05-21T07:08:52;6.55;;;2.67;;
59263;SDS011;45030;42.720;23.344;2023-05-21T07:11:17;8.10;;;3.85;;
59263;SDS011;45030;42.720;23.344;2023-05-21T07:13:43;5.93;;;3.25;;
59263;SDS011;45030;42.720;23.344;2023-05-21T07:16:08;4.57;;;2.97;;
59263;SDS011;45030;42.720;23.344;2023-05-21T07:18:33;9.73;;;4.43;;
59263;SDS011;45030;42.720;23.344;2023-05-21T07:20:58;5.50;;;2.97;;
59263;SDS011;45030;42.720;23.344;2023-05-21T07:23:24;7.60;;;4.22;;
59263;SDS011;45030;42.720;23.344;2023-05-21T07:25:49;5.88;;;3.50;;
59263;SDS011;45030;42.720;23.344;2023-05-21T07:28:14;7.38;;;3.45;;
59263;SDS011;45030;42.720;23.344;2023-05-21T07:30:40;12.60;;;4.32;;
59263;SDS011;45030;42.720;23.344;2023-05-21T07:33:05;9.80;;;5.60;;
59263;SDS011;45030;42.720;23.344;2023-05-21T07:35:30;10.63;;;4.90;;
59263;SDS011;45030;42.720;23.344;2023-05-21T07:37:55;6.30;;;2.97;;
59263;SDS011;45030;42.720;23.344;2023-05-21T07:40:20;6.05;;;3.25;;
59263;SDS011;45030;42.720;23.344;2023-05-21T07:42:46;5.10;;;3.00;;
59263;SDS011;45030;42.720;23.344;2023-05-21T07:45:11;5.65;;;2.50;;
59263;SDS011;45030;42.720;23.344;2023-05-21T07:47:36;7.35;;;3.53;;
59263;SDS011;45030;42.720;23.344;2023-05-21T07:50:02;4.90;;;2.78;;
59263;SDS011;45030;42.720;23.344;2023-05-21T07:52:27;6.00;;;3.00;;
59263;SDS011;45030;42.720;23.344;2023-05-21T07:54:52;6.50;;;3.25;;
59263;SDS011;45030;42.720;23.344;2023-05-21T07:57:17;3.83;;;2.50;;
59263;SDS011;45030;42.720;23.344;2023-05-21T07:59:42;6.40;;;3.08;;
59263;SDS011;45030;42.720;23.344;2023-05-21T08:02:08;4.57;;;2.60;;
59263;SDS011;45030;42.720;23.344;2023-05-21T08:04:33;6.67;;;2.77;;
59263;SDS011;45030;42.720;23.344;2023-05-21T08:06:58;4.88;;;2.40;;
59263;SDS011;45030;42.720;23.344;2023-05-21T08:09:23;3.95;;;2.33;;
59263;SDS011;45030;42.720;23.344;2023-05-21T08:11:49;3.88;;;2.05;;
59263;SDS011;45030;42.720;23.344;2023-05-21T08:14:14;5.20;;;2.58;;
59263;SDS011;45030;42.720;23.344;2023-05-21T08:16:40;4.07;;;2.70;;
59263;SDS011;45030;42.720;23.344;2023-05-21T08:19:05;5.05;;;2.63;;
59263;SDS011;45030;42.720;23.344;2023-05-21T08:21:30;3.85;;;2.28;;
59263;SDS011;45030;42.720;23.344;2023-05-21T08:23:56;5.55;;;2.90;;
59263;SDS011;45030;42.720;23.344;2023-05-21T08:26:23;3.60;;;1.90;;
59263;SDS011;45030;42.720;23.344;2023-05-21T08:28:49;5.97;;;2.85;;
59263;SDS011;45030;42.720;23.344;2023-05-21T08:31:16;5.28;;;2.20;;
59263;SDS011;45030;42.720;23.344;2023-05-21T08:33:48;12.75;;;3.55;;
59263;SDS011;45030;42.720;23.344;2023-05-21T08:36:14;6.72;;;2.25;;
59263;SDS011;45030;42.720;23.344;2023-05-21T08:38:39;3.00;;;2.03;;
59263;SDS011;45030;42.720;23.344;2023-05-21T08:41:05;3.67;;;2.30;;
59263;SDS011;45030;42.720;23.344;2023-05-21T08:43:31;3.53;;;2.13;;
59263;SDS011;45030;42.720;23.344;2023-05-21T08:45:57;5.43;;;2.65;;
59263;SDS011;45030;42.720;23.344;2023-05-21T08:48:24;3.55;;;2.38;;
59263;SDS011;45030;42.720;23.344;2023-05-21T08:50:53;3.55;;;2.10;;
59263;SDS011;45030;42.720;23.344;2023-05-21T08:53:19;4.15;;;2.30;;
59263;SDS011;45030;42.720;23.344;2023-05-21T08:55:44;5.15;;;3.38;;
59263;SDS011;45030;42.720;23.344;2023-05-21T08:58:10;4.63;;;2.20;;
59263;SDS011;45030;42.720;23.344;2023-05-21T09:00:37;3.97;;;1.90;;
59263;SDS011;45030;42.720;23.344;2023-05-21T09:03:05;6.07;;;2.38;;
59263;SDS011;45030;42.720;23.344;2023-05-21T09:05:38;2.92;;;1.80;;
59263;SDS011;45030;42.720;23.344;2023-05-21T09:08:04;3.60;;;2.10;;
59263;SDS011;45030;42.720;23.344;2023-05-21T09:10:34;5.10;;;1.88;;
59263;SDS011;45030;42.720;23.344;2023-05-21T09:13:00;2.47;;;1.80;;
59263;SDS011;45030;42.720;23.344;2023-05-21T09:15:26;4.13;;;2.05;;
59263;SDS011;45030;42.720;23.344;2023-05-21T09:17:51;4.32;;;1.75;;
59263;SDS011;45030;42.720;23.344;2023-05-21T09:20:17;4.97;;;2.08;;
59263;SDS011;45030;42.720;23.344;2023-05-21T09:22:48;3.47;;;2.15;;
59263;SDS011;45030;42.720;23.344;2023-05-21T09:25:14;3.65;;;2.17;;
59263;SDS011;45030;42.720;23.344;2023-05-21T09:27:40;2.70;;;2.00;;
59263;SDS011;45030;42.720;23.344;2023-05-21T09:30:09;6.40;;;2.28;;
59263;SDS011;45030;42.720;23.344;2023-05-21T09:32:35;5.47;;;2.30;;
59263;SDS011;45030;42.720;23.344;2023-05-21T09:35:10;3.97;;;1.58;;
59263;SDS011;45030;42.720;23.344;2023-05-21T09:40:13;4.22;;;2.10;;
59263;SDS011;45030;42.720;23.344;2023-05-21T09:42:43;6.70;;;1.75;;
59263;SDS011;45030;42.720;23.344;2023-05-21T09:45:09;2.88;;;1.52;;
59263;SDS011;45030;42.720;23.344;2023-05-21T09:47:41;4.35;;;2.40;;
59263;SDS011;45030;42.720;23.344;2023-05-21T09:50:13;3.00;;;1.65;;
59263;SDS011;45030;42.720;23.344;2023-05-21T09:52:41;2.67;;;1.90;;
59263;SDS011;45030;42.720;23.344;2023-05-21T09:55:09;3.97;;;1.98;;
59263;SDS011;45030;42.720;23.344;2023-05-21T09:57:41;4.35;;;1.60;;
59263;SDS011;45030;42.720;23.344;2023-05-21T10:00:07;2.97;;;1.40;;
59263;SDS011;45030;42.720;23.344;2023-05-21T10:02:34;5.13;;;1.30;;
59263;SDS011;45030;42.720;23.344;2023-05-21T10:05:01;5.65;;;2.05;;
59263;SDS011;45030;42.720;23.344;2023-05-21T10:07:28;3.95;;;1.75;;
59263;SDS011;45030;42.720;23.344;2023-05-21T10:09:53;4.40;;;1.83;;
59263;SDS011;45030;42.720;23.344;2023-05-21T10:12:22;1.65;;;1.27;;
59263;SDS011;45030;42.720;23.344;2023-05-21T10:14:50;5.22;;;1.80;;
59263;SDS011;45030;42.720;23.344;2023-05-21T10:17:17;3.22;;;1.60;;
59263;SDS011;45030;42.720;23.344;2023-05-21T10:19:43;4.03;;;2.20;;
59263;SDS011;45030;42.720;23.344;2023-05-21T10:22:10;3.90;;;2.10;;
59263;SDS011;45030;42.720;23.344;2023-05-21T10:24:35;4.03;;;1.67;;
59263;SDS011;45030;42.720;23.344;2023-05-21T10:27:01;2.78;;;1.70;;
59263;SDS011;45030;42.720;23.344;2023-05-21T10:29:27;5.05;;;2.03;;
59263;SDS011;45030;42.720;23.344;2023-05-21T10:31:54;5.28;;;2.38;;
59263;SDS011;45030;42.720;23.344;2023-05-21T10:34:20;3.45;;;1.83;;
59263;SDS011;45030;42.720;23.344;2023-05-21T10:36:47;3.25;;;1.70;;
59263;SDS011;45030;42.720;23.344;2023-05-21T10:39:13;7.45;;;3.05;;
59263;SDS011;45030;42.720;23.344;2023-05-21T10:41:45;4.38;;;2.15;;
59263;SDS011;45030;42.720;23.344;2023-05-21T10:55:55;6.75;;;2.55;;
59263;SDS011;45030;42.720;23.344;2023-05-21T11:00:48;5.47;;;2.07;;
59263;SDS011;45030;42.720;23.344;2023-05-21T11:03:13;4.53;;;2.35;;
59263;SDS011;45030;42.720;23.344;2023-05-21T11:05:40;4.05;;;1.65;;
59263;SDS011;45030;42.720;23.344;2023-05-21T11:08:20;4.75;;;2.03;;
59263;SDS011;45030;42.720;23.344;2023-05-21T11:10:46;3.85;;;2.28;;
59263;SDS011;45030;42.720;23.344;2023-05-21T11:13:15;3.33;;;2.13;;
59263;SDS011;45030;42.720;23.344;2023-05-21T11:18:21;4.90;;;2.65;;
59263;SDS011;45030;42.720;23.344;2023-05-21T11:20:49;5.75;;;1.85;;
59263;SDS011;45030;42.720;23.344;2023-05-21T11:23:15;3.83;;;2.47;;
59263;SDS011;45030;42.720;23.344;2023-05-21T11:25:40;3.10;;;1.95;;
59263;SDS011;45030;42.720;23.344;2023-05-21T11:28:05;3.97;;;2.20;;
59263;SDS011;45030;42.720;23.344;2023-05-21T11:30:33;2.75;;;1.55;;
59263;SDS011;45030;42.720;23.344;2023-05-21T11:38:10;4.75;;;2.60;;
59263;SDS011;45030;42.720;23.344;2023-05-21T11:40:35;7.20;;;3.90;;
59263;SDS011;45030;42.720;23.344;2023-05-21T11:43:00;8.73;;;3.45;;
59263;SDS011;45030;42.720;23.344;2023-05-21T11:45:29;6.80;;;3.38;;
59263;SDS011;45030;42.720;23.344;2023-05-21T11:47:55;4.55;;;2.20;;
59263;SDS011;45030;42.720;23.344;2023-05-21T11:50:20;3.08;;;1.45;;
59263;SDS011;45030;42.720;23.344;2023-05-21T11:52:46;5.65;;;2.22;;
59263;SDS011;45030;42.720;23.344;2023-05-21T11:55:11;4.18;;;1.90;;
59263;SDS011;45030;42.720;23.344;2023-05-21T11:57:39;4.25;;;2.42;;
59263;SDS011;45030;42.720;23.344;2023-05-21T12:00:05;5.13;;;3.10;;
59263;SDS011;45030;42.720;23.344;2023-05-21T12:02:43;3.28;;;2.28;;
59263;SDS011;45030;42.720;23.344;2023-05-21T12:05:08;4.00;;;2.35;;
59263;SDS011;45030;42.720;23.344;2023-05-21T12:07:34;6.53;;;2.67;;
59263;SDS011;45030;42.720;23.344;2023-05-21T12:09:59;4.75;;;2.33;;
59263;SDS011;45030;42.720;23.344;2023-05-21T12:12:25;6.30;;;3.28;;
59263;SDS011;45030;42.720;23.344;2023-05-21T12:14:51;7.90;;;2.60;;
59263;SDS011;45030;42.720;23.344;2023-05-21T12:17:24;6.05;;;3.15;;
59263;SDS011;45030;42.720;23.344;2023-05-21T12:19:50;6.35;;;3.65;;
59263;SDS011;45030;42.720;23.344;2023-05-21T12:22:16;4.57;;;2.72;;
59263;SDS011;45030;42.720;23.344;2023-05-21T12:24:41;4.95;;;2.58;;
59263;SDS011;45030;42.720;23.344;2023-05-21T12:27:07;5.07;;;2.80;;
59263;SDS011;45030;42.720;23.344;2023-05-21T12:29:37;4.82;;;3.08;;
59263;SDS011;45030;42.720;23.344;2023-05-21T12:32:03;5.55;;;2.58;;
59263;SDS011;45030;42.720;23.344;2023-05-21T12:34:49;4.63;;;2.65;;
59263;SDS011;45030;42.720;23.344;2023-05-21T12:37:25;5.50;;;2.58;;
59263;SDS011;45030;42.720;23.344;2023-05-21T12:39:51;3.85;;;2.17;;
59263;SDS011;45030;42.720;23.344;2023-05-21T12:42:23;4.35;;;2.28;;
59263;SDS011;45030;42.720;23.344;2023-05-21T12:44:50;3.70;;;2.40;;
59263;SDS011;45030;42.720;23.344;2023-05-21T12:47:16;3.95;;;2.47;;
59263;SDS011;45030;42.720;23.344;2023-05-21T12:49:42;3.25;;;2.17;;
59263;SDS011;45030;42.720;23.344;2023-05-21T12:52:16;4.72;;;2.50;;
59263;SDS011;45030;42.720;23.344;2023-05-21T12:54:43;4.78;;;2.58;;
59263;SDS011;45030;42.720;23.344;2023-05-21T12:57:09;4.90;;;3.00;;
59263;SDS011;45030;42.720;23.344;2023-05-21T13:02:12;5.15;;;2.83;;
59263;SDS011;45030;42.720;23.344;2023-05-21T13:04:38;4.78;;;2.92;;
59263;SDS011;45030;42.720;23.344;2023-05-21T13:07:03;5.05;;;2.78;;
59263;SDS011;45030;42.720;23.344;2023-05-21T13:09:28;6.45;;;2.72;;
59263;SDS011;45030;42.720;23.344;2023-05-21T13:11:53;6.65;;;2.70;;
59263;SDS011;45030;42.720;23.344;2023-05-21T13:14:19;7.00;;;3.80;;
59263;SDS011;45030;42.720;23.344;2023-05-21T13:16:45;4.82;;;3.38;;
59263;SDS011;45030;42.720;23.344;2023-05-21T13:19:11;4.95;;;3.22;;
59263;SDS011;45030;42.720;23.344;2023-05-21T13:21:36;8.05;;;3.88;;
59263;SDS011;45030;42.720;23.344;2023-05-21T13:24:01;5.70;;;3.00;;
59263;SDS011;45030;42.720;23.344;2023-05-21T13:26:26;6.97;;;2.90;;
59263;SDS011;45030;42.720;23.344;2023-05-21T13:28:52;7.03;;;3.22;;
59263;SDS011;45030;42.720;23.344;2023-05-21T13:31:17;4.80;;;3.35;;
59263;SDS011;45030;42.720;23.344;2023-05-21T13:33:42;7.05;;;3.00;;
59263;SDS011;45030;42.720;23.344;2023-05-21T13:36:08;5.95;;;2.95;;
59263;SDS011;45030;42.720;23.344;2023-05-21T13:38:33;3.60;;;2.58;;
59263;SDS011;45030;42.720;23.344;2023-05-21T13:40:58;5.15;;;3.22;;
59263;SDS011;45030;42.720;23.344;2023-05-21T13:43:23;7.68;;;3.50;;
59263;SDS011;45030;42.720;23.344;2023-05-21T13:45:49;3.90;;;2.35;;
59263;SDS011;45030;42.720;23.344;2023-05-21T13:48:15;4.30;;;2.88;;
59263;SDS011;45030;42.720;23.344;2023-05-21T13:50:41;4.70;;;2.42;;
59263;SDS011;45030;42.720;23.344;2023-05-21T13:53:06;4.00;;;2.60;;
59263;SDS011;45030;42.720;23.344;2023-05-21T13:55:31;5.25;;;2.65;;
59263;SDS011;45030;42.720;23.344;2023-05-21T13:57:56;4.82;;;2.83;;
59263;SDS011;45030;42.720;23.344;2023-05-21T14:00:22;3.90;;;2.20;;
59263;SDS011;45030;42.720;23.344;2023-05-21T14:02:47;3.88;;;2.15;;
59263;SDS011;45030;42.720;23.344;2023-05-21T14:05:13;4.38;;;2.50;;
59263;SDS011;45030;42.720;23.344;2023-05-21T14:07:39;6.93;;;2.40;;
59263;SDS011;45030;42.720;23.344;2023-05-21T14:10:05;7.50;;;2.88;;
59263;SDS011;45030;42.720;23.344;2023-05-21T14:12:31;4.80;;;2.70;;
59263;SDS011;45030;42.720;23.344;2023-05-21T14:14:57;4.22;;;2.58;;
59263;SDS011;45030;42.720;23.344;2023-05-21T14:17:22;4.70;;;2.80;;
59263;SDS011;45030;42.720;23.344;2023-05-21T14:19:47;9.40;;;2.78;;
59263;SDS011;45030;42.720;23.344;2023-05-21T14:22:13;4.03;;;2.45;;
59263;SDS011;45030;42.720;23.344;2023-05-21T14:24:38;4.10;;;2.53;;
59263;SDS011;45030;42.720;23.344;2023-05-21T14:27:03;3.90;;;2.37;;
59263;SDS011;45030;42.720;23.344;2023-05-21T14:29:28;4.43;;;2.63;;
59263;SDS011;45030;42.720;23.344;2023-05-21T14:31:54;3.88;;;2.08;;
59263;SDS011;45030;42.720;23.344;2023-05-21T14:34:19;6.65;;;3.67;;
59263;SDS011;45030;42.720;23.344;2023-05-21T14:36:44;5.93;;;3.13;;
59263;SDS011;45030;42.720;23.344;2023-05-21T14:39:10;4.60;;;3.13;;
59263;SDS011;45030;42.720;23.344;2023-05-21T14:41:37;6.78;;;3.50;;
59263;SDS011;45030;42.720;23.344;2023-05-21T14:44:02;7.20;;;3.13;;
59263;SDS011;45030;42.720;23.344;2023-05-21T14:46:27;6.28;;;3.13;;
59263;SDS011;45030;42.720;23.344;2023-05-21T14:48:52;9.40;;;3.17;;
59263;SDS011;45030;42.720;23.344;2023-05-21T14:51:19;5.30;;;2.47;;